sensor_id;sensor_type;location;lat;lon;timestamp;P1;durP1;ratioP1;P2;durP2;ratioP2
9270;SDS011;4673;53.458;9.940;2023-11-22T00:01:21;2.00;;;2.00;;
9270;SDS011;4673;53.458;9.940;2023-11-22T00:03:47;2.67;;;2.67;;
9270;SDS011;4673;53.458;9.940;2023-11-22T00:06:12;2.23;;;2.23;;
9270;SDS011;4673;53.458;9.940;2023-11-22T00:08:38;2.20;;;2.20;;
9270;SDS011;4673;53.458;9.940;2023-11-22T00:11:04;2.00;;;2.00;;
9270;SDS011;4673;53.458;9.940;2023-11-22T00:13:30;1.93;;;1.93;;
9270;SDS011;4673;53.458;9.940;2023-11-22T00:15:57;2.50;;;2.50;;
9270;SDS011;4673;53.458;9.940;2023-11-22T00:18:22;2.70;;;2.70;;
9270;SDS011;4673;53.458;9.940;2023-11-22T00:20:49;2.70;;;2.70;;
9270;SDS011;4673;53.458;9.940;2023-11-22T00:23:15;2.20;;;2.20;;
9270;SDS011;4673;53.458;9.940;2023-11-22T00:25:41;2.30;;;2.30;;
9270;SDS011;4673;53.458;9.940;2023-11-22T00:28:06;2.67;;;2.67;;
9270;SDS011;4673;53.458;9.940;2023-11-22T00:30:32;2.23;;;2.23;;
9270;SDS011;4673;53.458;9.940;2023-11-22T00:32:58;1.97;;;1.97;;
9270;SDS011;4673;53.458;9.940;2023-11-22T00:35:24;2.90;;;2.90;;
9270;SDS011;4673;53.458;9.940;2023-11-22T00:37:49;2.50;;;2.50;;
9270;SDS011;4673;53.458;9.940;2023-11-22T00:40:15;2.30;;;2.30;;
9270;SDS011;4673;53.458;9.940;2023-11-22T00:42:41;2.43;;;2.43;;
9270;SDS011;4673;53.458;9.940;2023-11-22T00:45:08;2.23;;;2.23;;
9270;SDS011;4673;53.458;9.940;2023-11-22T00:47:35;1.87;;;1.87;;
9270;SDS011;4673;53.458;9.940;2023-11-22T00:50:01;2.27;;;2.27;;
9270;SDS011;4673;53.458;9.940;2023-11-22T00:52:29;2.40;;;2.40;;
9270;SDS011;4673;53.458;9.940;2023-11-22T00:54:55;2.57;;;2.57;;
9270;SDS011;4673;53.458;9.940;2023-11-22T00:57:21;2.27;;;2.27;;
9270;SDS011;4673;53.458;9.940;2023-11-22T00:59:46;2.47;;;2.47;;
9270;SDS011;4673;53.458;9.940;2023-11-22T01:02:13;2.47;;;2.47;;
9270;SDS011;4673;53.458;9.940;2023-11-22T01:04:38;2.27;;;2.27;;
9270;SDS011;4673;53.458;9.940;2023-11-22T01:07:05;2.17;;;2.17;;
9270;SDS011;4673;53.458;9.940;2023-11-22T01:09:31;2.40;;;2.40;;
9270;SDS011;4673;53.458;9.940;2023-11-22T01:11:57;2.10;;;2.10;;
9270;SDS011;4673;53.458;9.940;2023-11-22T01:14:23;2.60;;;2.60;;
9270;SDS011;4673;53.458;9.940;2023-11-22T01:16:50;2.40;;;2.40;;
9270;SDS011;4673;53.458;9.940;2023-11-22T01:19:16;2.40;;;2.40;;
9270;SDS011;4673;53.458;9.940;2023-11-22T01:21:42;2.40;;;2.40;;
9270;SDS011;4673;53.458;9.940;2023-11-22T01:24:07;2.13;;;2.13;;
9270;SDS011;4673;53.458;9.940;2023-11-22T01:26:33;2.47;;;2.47;;
9270;SDS011;4673;53.458;9.940;2023-11-22T01:28:59;2.00;;;2.00;;
9270;SDS011;4673;53.458;9.940;2023-11-22T01:31:25;2.47;;;2.47;;
9270;SDS011;4673;53.458;9.940;2023-11-22T01:33:52;2.40;;;2.40;;
9270;SDS011;4673;53.458;9.940;2023-11-22T01:36:19;2.67;;;2.67;;
9270;SDS011;4673;53.458;9.940;2023-11-22T01:38:44;2.23;;;2.23;;
9270;SDS011;4673;53.458;9.940;2023-11-22T01:41:11;2.50;;;2.50;;
9270;SDS011;4673;53.458;9.940;2023-11-22T01:43:40;2.57;;;2.57;;
9270;SDS011;4673;53.458;9.940;2023-11-22T01:46:07;2.67;;;2.67;;
9270;SDS011;4673;53.458;9.940;2023-11-22T01:48:34;2.30;;;2.30;;
9270;SDS011;4673;53.458;9.940;2023-11-22T01:51:00;2.83;;;2.83;;
9270;SDS011;4673;53.458;9.940;2023-11-22T01:53:26;2.00;;;2.00;;
9270;SDS011;4673;53.458;9.940;2023-11-22T01:55:52;2.53;;;2.53;;
9270;SDS011;4673;53.458;9.940;2023-11-22T01:58:18;2.07;;;2.07;;
9270;SDS011;4673;53.458;9.940;2023-11-22T02:00:45;2.57;;;2.57;;
9270;SDS011;4673;53.458;9.940;2023-11-22T02:03:17;2.50;;;2.50;;
9270;SDS011;4673;53.458;9.940;2023-11-22T02:05:44;2.33;;;2.33;;
9270;SDS011;4673;53.458;9.940;2023-11-22T02:08:10;3.30;;;3.30;;
9270;SDS011;4673;53.458;9.940;2023-11-22T02:10:38;2.60;;;2.60;;
9270;SDS011;4673;53.458;9.940;2023-11-22T02:13:05;3.10;;;3.10;;
9270;SDS011;4673;53.458;9.940;2023-11-22T02:15:33;2.80;;;2.80;;
9270;SDS011;4673;53.458;9.940;2023-11-22T02:17:59;2.20;;;2.20;;
9270;SDS011;4673;53.458;9.940;2023-11-22T02:20:25;2.50;;;2.50;;
9270;SDS011;4673;53.458;9.940;2023-11-22T02:22:51;2.40;;;2.40;;
9270;SDS011;4673;53.458;9.940;2023-11-22T02:25:18;2.60;;;2.60;;
9270;SDS011;4673;53.458;9.940;2023-11-22T02:27:46;3.37;;;3.37;;
9270;SDS011;4673;53.458;9.940;2023-11-22T02:30:12;2.40;;;2.40;;
9270;SDS011;4673;53.458;9.940;2023-11-22T02:32:38;2.87;;;2.87;;
9270;SDS011;4673;53.458;9.940;2023-11-22T02:35:04;2.67;;;2.67;;
9270;SDS011;4673;53.458;9.940;2023-11-22T02:37:33;3.10;;;3.10;;
9270;SDS011;4673;53.458;9.940;2023-11-22T02:40:02;2.67;;;2.67;;
9270;SDS011;4673;53.458;9.940;2023-11-22T02:42:43;3.00;;;3.00;;
9270;SDS011;4673;53.458;9.940;2023-11-22T02:45:08;2.77;;;2.77;;
9270;SDS011;4673;53.458;9.940;2023-11-22T02:47:34;3.50;;;3.50;;
9270;SDS011;4673;53.458;9.940;2023-11-22T02:50:01;3.07;;;3.07;;
9270;SDS011;4673;53.458;9.940;2023-11-22T02:52:27;2.70;;;2.70;;
9270;SDS011;4673;53.458;9.940;2023-11-22T02:54:52;2.83;;;2.83;;
9270;SDS011;4673;53.458;9.940;2023-11-22T02:57:18;2.80;;;2.80;;
9270;SDS011;4673;53.458;9.940;2023-11-22T02:59:44;2.80;;;2.80;;
9270;SDS011;4673;53.458;9.940;2023-11-22T03:02:10;3.40;;;3.40;;
9270;SDS011;4673;53.458;9.940;2023-11-22T03:04:36;2.53;;;2.53;;
9270;SDS011;4673;53.458;9.940;2023-11-22T03:07:03;2.87;;;2.87;;
9270;SDS011;4673;53.458;9.940;2023-11-22T03:09:34;3.40;;;3.40;;
9270;SDS011;4673;53.458;9.940;2023-11-22T03:11:59;3.33;;;3.33;;
9270;SDS011;4673;53.458;9.940;2023-11-22T03:14:27;2.93;;;2.93;;
9270;SDS011;4673;53.458;9.940;2023-11-22T03:16:54;2.77;;;2.77;;
9270;SDS011;4673;53.458;9.940;2023-11-22T03:19:20;3.10;;;3.10;;
9270;SDS011;4673;53.458;9.940;2023-11-22T03:21:46;2.87;;;2.87;;
9270;SDS011;4673;53.458;9.940;2023-11-22T03:24:11;3.13;;;3.13;;
9270;SDS011;4673;53.458;9.940;2023-11-22T03:26:37;3.10;;;3.10;;
9270;SDS011;4673;53.458;9.940;2023-11-22T03:29:04;3.47;;;3.47;;
9270;SDS011;4673;53.458;9.940;2023-11-22T03:31:30;3.17;;;3.17;;
9270;SDS011;4673;53.458;9.940;2023-11-22T03:33:56;3.60;;;3.60;;
9270;SDS011;4673;53.458;9.940;2023-11-22T03:36:22;3.20;;;3.20;;
9270;SDS011;4673;53.458;9.940;2023-11-22T03:38:48;3.00;;;3.00;;
9270;SDS011;4673;53.458;9.940;2023-11-22T03:41:14;4.07;;;4.07;;
9270;SDS011;4673;53.458;9.940;2023-11-22T03:43:40;4.03;;;4.03;;
9270;SDS011;4673;53.458;9.940;2023-11-22T03:46:05;3.20;;;3.20;;
9270;SDS011;4673;53.458;9.940;2023-11-22T03:48:31;3.77;;;3.77;;
9270;SDS011;4673;53.458;9.940;2023-11-22T03:50:56;3.37;;;3.37;;
9270;SDS011;4673;53.458;9.940;2023-11-22T03:53:22;3.80;;;3.80;;
9270;SDS011;4673;53.458;9.940;2023-11-22T03:55:51;3.87;;;3.87;;
9270;SDS011;4673;53.458;9.940;2023-11-22T03:58:17;3.43;;;3.43;;
9270;SDS011;4673;53.458;9.940;2023-11-22T04:00:43;3.50;;;3.50;;
9270;SDS011;4673;53.458;9.940;2023-11-22T04:03:09;3.73;;;3.73;;
9270;SDS011;4673;53.458;9.940;2023-11-22T04:05:34;3.47;;;3.47;;
9270;SDS011;4673;53.458;9.940;2023-11-22T04:08:00;3.60;;;3.60;;
9270;SDS011;4673;53.458;9.940;2023-11-22T04:10:26;3.67;;;3.67;;
9270;SDS011;4673;53.458;9.940;2023-11-22T04:12:52;3.77;;;3.77;;
9270;SDS011;4673;53.458;9.940;2023-11-22T04:15:18;3.53;;;3.53;;
9270;SDS011;4673;53.458;9.940;2023-11-22T04:17:43;3.80;;;3.80;;
9270;SDS011;4673;53.458;9.940;2023-11-22T04:20:09;4.30;;;4.30;;
9270;SDS011;4673;53.458;9.940;2023-11-22T04:22:43;4.30;;;4.30;;
9270;SDS011;4673;53.458;9.940;2023-11-22T04:25:12;4.80;;;4.80;;
9270;SDS011;4673;53.458;9.940;2023-11-22T04:27:41;4.03;;;4.03;;
9270;SDS011;4673;53.458;9.940;2023-11-22T04:30:07;3.60;;;3.60;;
9270;SDS011;4673;53.458;9.940;2023-11-22T04:32:35;3.57;;;3.57;;
9270;SDS011;4673;53.458;9.940;2023-11-22T04:35:01;4.13;;;4.13;;
9270;SDS011;4673;53.458;9.940;2023-11-22T04:37:29;3.60;;;3.60;;
9270;SDS011;4673;53.458;9.940;2023-11-22T04:39:57;3.67;;;3.67;;
9270;SDS011;4673;53.458;9.940;2023-11-22T04:42:23;3.73;;;3.73;;
9270;SDS011;4673;53.458;9.940;2023-11-22T04:44:49;4.10;;;4.10;;
9270;SDS011;4673;53.458;9.940;2023-11-22T04:47:15;3.73;;;3.73;;
9270;SDS011;4673;53.458;9.940;2023-11-22T04:49:40;3.97;;;3.97;;
9270;SDS011;4673;53.458;9.940;2023-11-22T04:52:06;3.83;;;3.83;;
9270;SDS011;4673;53.458;9.940;2023-11-22T04:54:32;3.63;;;3.63;;
9270;SDS011;4673;53.458;9.940;2023-11-22T04:56:59;3.83;;;3.83;;
9270;SDS011;4673;53.458;9.940;2023-11-22T04:59:24;4.30;;;4.30;;
9270;SDS011;4673;53.458;9.940;2023-11-22T05:01:50;4.00;;;4.00;;
9270;SDS011;4673;53.458;9.940;2023-11-22T05:04:16;3.90;;;3.90;;
9270;SDS011;4673;53.458;9.940;2023-11-22T05:06:43;4.03;;;4.03;;
9270;SDS011;4673;53.458;9.940;2023-11-22T05:09:09;3.37;;;3.37;;
9270;SDS011;4673;53.458;9.940;2023-11-22T05:11:36;3.47;;;3.47;;
9270;SDS011;4673;53.458;9.940;2023-11-22T05:14:01;4.00;;;4.00;;
9270;SDS011;4673;53.458;9.940;2023-11-22T05:16:27;3.90;;;3.90;;
9270;SDS011;4673;53.458;9.940;2023-11-22T05:18:53;3.90;;;3.90;;
9270;SDS011;4673;53.458;9.940;2023-11-22T05:21:18;3.73;;;3.73;;
9270;SDS011;4673;53.458;9.940;2023-11-22T05:23:44;3.43;;;3.43;;
9270;SDS011;4673;53.458;9.940;2023-11-22T05:26:09;3.40;;;3.40;;
9270;SDS011;4673;53.458;9.940;2023-11-22T05:28:35;3.53;;;3.53;;
9270;SDS011;4673;53.458;9.940;2023-11-22T05:31:01;4.00;;;4.00;;
9270;SDS011;4673;53.458;9.940;2023-11-22T05:33:26;3.27;;;3.27;;
9270;SDS011;4673;53.458;9.940;2023-11-22T05:35:52;3.57;;;3.57;;
9270;SDS011;4673;53.458;9.940;2023-11-22T05:38:18;3.90;;;3.90;;
9270;SDS011;4673;53.458;9.940;2023-11-22T05:40:44;4.07;;;4.07;;
9270;SDS011;4673;53.458;9.940;2023-11-22T05:43:10;3.60;;;3.60;;
9270;SDS011;4673;53.458;9.940;2023-11-22T05:45:36;3.77;;;3.77;;
9270;SDS011;4673;53.458;9.940;2023-11-22T05:48:01;3.17;;;3.17;;
9270;SDS011;4673;53.458;9.940;2023-11-22T05:50:27;4.07;;;4.07;;
9270;SDS011;4673;53.458;9.940;2023-11-22T05:52:52;3.97;;;3.97;;
9270;SDS011;4673;53.458;9.940;2023-11-22T05:55:18;3.73;;;3.73;;
9270;SDS011;4673;53.458;9.940;2023-11-22T05:57:44;3.37;;;3.37;;
9270;SDS011;4673;53.458;9.940;2023-11-22T06:00:10;3.93;;;3.93;;
9270;SDS011;4673;53.458;9.940;2023-11-22T06:02:36;3.60;;;3.60;;
9270;SDS011;4673;53.458;9.940;2023-11-22T06:05:03;4.10;;;4.10;;
9270;SDS011;4673;53.458;9.940;2023-11-22T06:07:30;4.17;;;4.17;;
9270;SDS011;4673;53.458;9.940;2023-11-22T06:09:56;3.93;;;3.93;;
9270;SDS011;4673;53.458;9.940;2023-11-22T06:12:22;3.23;;;3.23;;
9270;SDS011;4673;53.458;9.940;2023-11-22T06:14:48;3.63;;;3.63;;
9270;SDS011;4673;53.458;9.940;2023-11-22T06:17:13;3.57;;;3.57;;
9270;SDS011;4673;53.458;9.940;2023-11-22T06:19:39;4.07;;;4.07;;
9270;SDS011;4673;53.458;9.940;2023-11-22T06:22:06;3.97;;;3.97;;
9270;SDS011;4673;53.458;9.940;2023-11-22T06:24:32;3.97;;;3.97;;
9270;SDS011;4673;53.458;9.940;2023-11-22T06:26:58;4.20;;;4.20;;
9270;SDS011;4673;53.458;9.940;2023-11-22T06:29:24;4.07;;;4.07;;
9270;SDS011;4673;53.458;9.940;2023-11-22T06:31:50;4.30;;;4.30;;
9270;SDS011;4673;53.458;9.940;2023-11-22T06:34:15;4.90;;;4.90;;
9270;SDS011;4673;53.458;9.940;2023-11-22T06:36:41;4.33;;;4.33;;
9270;SDS011;4673;53.458;9.940;2023-11-22T06:39:08;4.20;;;4.20;;
9270;SDS011;4673;53.458;9.940;2023-11-22T06:41:34;4.33;;;4.33;;
9270;SDS011;4673;53.458;9.940;2023-11-22T06:44:00;4.00;;;4.00;;
9270;SDS011;4673;53.458;9.940;2023-11-22T06:46:25;4.03;;;4.03;;
9270;SDS011;4673;53.458;9.940;2023-11-22T06:48:51;3.73;;;3.73;;
9270;SDS011;4673;53.458;9.940;2023-11-22T06:51:17;5.00;;;5.00;;
9270;SDS011;4673;53.458;9.940;2023-11-22T06:53:44;4.47;;;4.47;;
9270;SDS011;4673;53.458;9.940;2023-11-22T06:56:10;3.87;;;3.87;;
9270;SDS011;4673;53.458;9.940;2023-11-22T06:58:36;4.23;;;4.23;;
9270;SDS011;4673;53.458;9.940;2023-11-22T07:01:02;4.47;;;4.47;;
9270;SDS011;4673;53.458;9.940;2023-11-22T07:03:27;5.23;;;5.23;;
9270;SDS011;4673;53.458;9.940;2023-11-22T07:05:53;4.30;;;4.30;;
9270;SDS011;4673;53.458;9.940;2023-11-22T07:08:18;3.80;;;3.80;;
9270;SDS011;4673;53.458;9.940;2023-11-22T07:10:45;4.33;;;4.33;;
9270;SDS011;4673;53.458;9.940;2023-11-22T07:13:11;5.77;;;5.77;;
9270;SDS011;4673;53.458;9.940;2023-11-22T07:15:38;5.90;;;5.90;;
9270;SDS011;4673;53.458;9.940;2023-11-22T07:18:04;6.23;;;6.23;;
9270;SDS011;4673;53.458;9.940;2023-11-22T07:20:30;5.40;;;5.40;;
9270;SDS011;4673;53.458;9.940;2023-11-22T07:22:56;5.33;;;5.33;;
9270;SDS011;4673;53.458;9.940;2023-11-22T07:25:22;5.40;;;5.40;;
9270;SDS011;4673;53.458;9.940;2023-11-22T07:27:50;5.67;;;5.67;;
9270;SDS011;4673;53.458;9.940;2023-11-22T07:30:16;5.43;;;5.43;;
9270;SDS011;4673;53.458;9.940;2023-11-22T07:32:47;5.57;;;5.57;;
9270;SDS011;4673;53.458;9.940;2023-11-22T07:35:17;5.57;;;5.57;;
9270;SDS011;4673;53.458;9.940;2023-11-22T07:37:45;5.20;;;5.20;;
9270;SDS011;4673;53.458;9.940;2023-11-22T07:40:12;5.93;;;5.93;;
9270;SDS011;4673;53.458;9.940;2023-11-22T07:42:42;5.67;;;5.67;;
9270;SDS011;4673;53.458;9.940;2023-11-22T07:45:09;5.97;;;5.97;;
9270;SDS011;4673;53.458;9.940;2023-11-22T07:47:36;6.20;;;6.20;;
9270;SDS011;4673;53.458;9.940;2023-11-22T07:50:06;5.07;;;5.07;;
9270;SDS011;4673;53.458;9.940;2023-11-22T07:52:33;5.67;;;5.67;;
9270;SDS011;4673;53.458;9.940;2023-11-22T07:54:58;5.37;;;5.37;;
9270;SDS011;4673;53.458;9.940;2023-11-22T07:57:24;5.83;;;5.83;;
9270;SDS011;4673;53.458;9.940;2023-11-22T07:59:50;5.37;;;5.37;;
9270;SDS011;4673;53.458;9.940;2023-11-22T08:02:20;5.17;;;5.17;;
9270;SDS011;4673;53.458;9.940;2023-11-22T08:04:46;5.80;;;5.80;;
9270;SDS011;4673;53.458;9.940;2023-11-22T08:07:13;4.70;;;4.70;;
9270;SDS011;4673;53.458;9.940;2023-11-22T08:09:39;4.40;;;4.40;;
9270;SDS011;4673;53.458;9.940;2023-11-22T08:12:11;6.40;;;6.40;;
9270;SDS011;4673;53.458;9.940;2023-11-22T08:14:38;6.50;;;6.50;;
9270;SDS011;4673;53.458;9.940;2023-11-22T08:17:05;7.53;;;7.53;;
9270;SDS011;4673;53.458;9.940;2023-11-22T08:19:31;7.33;;;7.33;;
9270;SDS011;4673;53.458;9.940;2023-11-22T08:21:57;6.80;;;6.80;;
9270;SDS011;4673;53.458;9.940;2023-11-22T08:24:22;6.00;;;6.00;;
9270;SDS011;4673;53.458;9.940;2023-11-22T08:26:48;6.67;;;6.67;;
9270;SDS011;4673;53.458;9.940;2023-11-22T08:29:13;5.93;;;5.93;;
9270;SDS011;4673;53.458;9.940;2023-11-22T08:31:39;5.53;;;5.53;;
9270;SDS011;4673;53.458;9.940;2023-11-22T08:34:05;5.57;;;5.57;;
9270;SDS011;4673;53.458;9.940;2023-11-22T08:36:34;5.50;;;5.50;;
9270;SDS011;4673;53.458;9.940;2023-11-22T08:39:00;6.70;;;6.70;;
9270;SDS011;4673;53.458;9.940;2023-11-22T08:41:29;5.20;;;5.20;;
9270;SDS011;4673;53.458;9.940;2023-11-22T08:43:56;4.37;;;4.37;;
9270;SDS011;4673;53.458;9.940;2023-11-22T08:46:22;4.03;;;4.03;;
9270;SDS011;4673;53.458;9.940;2023-11-22T08:48:49;5.00;;;5.00;;
9270;SDS011;4673;53.458;9.940;2023-11-22T08:51:15;4.33;;;4.33;;
9270;SDS011;4673;53.458;9.940;2023-11-22T08:53:42;3.40;;;3.40;;
9270;SDS011;4673;53.458;9.940;2023-11-22T08:56:09;3.30;;;3.30;;
9270;SDS011;4673;53.458;9.940;2023-11-22T08:58:36;3.23;;;3.23;;
9270;SDS011;4673;53.458;9.940;2023-11-22T09:01:03;3.20;;;3.20;;
9270;SDS011;4673;53.458;9.940;2023-11-22T09:03:30;3.10;;;3.10;;
9270;SDS011;4673;53.458;9.940;2023-11-22T09:05:57;3.33;;;3.33;;
9270;SDS011;4673;53.458;9.940;2023-11-22T09:08:23;3.77;;;3.77;;
9270;SDS011;4673;53.458;9.940;2023-11-22T09:10:49;3.73;;;3.73;;
9270;SDS011;4673;53.458;9.940;2023-11-22T09:13:15;3.47;;;3.47;;
9270;SDS011;4673;53.458;9.940;2023-11-22T09:15:42;3.63;;;3.63;;
9270;SDS011;4673;53.458;9.940;2023-11-22T09:18:10;3.07;;;3.07;;
9270;SDS011;4673;53.458;9.940;2023-11-22T09:20:39;3.70;;;3.70;;
9270;SDS011;4673;53.458;9.940;2023-11-22T09:23:05;2.90;;;2.90;;
9270;SDS011;4673;53.458;9.940;2023-11-22T09:25:31;3.10;;;3.10;;
9270;SDS011;4673;53.458;9.940;2023-11-22T09:27:58;3.30;;;3.30;;
9270;SDS011;4673;53.458;9.940;2023-11-22T09:30:25;2.93;;;2.93;;
9270;SDS011;4673;53.458;9.940;2023-11-22T09:33:11;3.37;;;3.37;;
9270;SDS011;4673;53.458;9.940;2023-11-22T09:35:40;2.87;;;2.87;;
9270;SDS011;4673;53.458;9.940;2023-11-22T09:38:07;3.37;;;3.37;;
9270;SDS011;4673;53.458;9.940;2023-11-22T09:40:46;2.83;;;2.83;;
9270;SDS011;4673;53.458;9.940;2023-11-22T09:43:12;3.53;;;3.53;;
9270;SDS011;4673;53.458;9.940;2023-11-22T09:45:43;2.53;;;2.53;;
9270;SDS011;4673;53.458;9.940;2023-11-22T09:48:19;2.80;;;2.80;;
9270;SDS011;4673;53.458;9.940;2023-11-22T09:53:34;3.00;;;3.00;;
9270;SDS011;4673;53.458;9.940;2023-11-22T09:56:05;2.73;;;2.73;;
9270;SDS011;4673;53.458;9.940;2023-11-22T09:58:33;2.87;;;2.87;;
9270;SDS011;4673;53.458;9.940;2023-11-22T10:01:00;2.67;;;2.67;;
9270;SDS011;4673;53.458;9.940;2023-11-22T10:03:26;3.20;;;3.20;;
9270;SDS011;4673;53.458;9.940;2023-11-22T10:05:56;2.90;;;2.90;;
9270;SDS011;4673;53.458;9.940;2023-11-22T10:08:24;2.87;;;2.87;;
9270;SDS011;4673;53.458;9.940;2023-11-22T10:10:52;3.37;;;3.37;;
9270;SDS011;4673;53.458;9.940;2023-11-22T10:13:19;2.20;;;2.20;;
9270;SDS011;4673;53.458;9.940;2023-11-22T10:15:47;3.10;;;3.10;;
9270;SDS011;4673;53.458;9.940;2023-11-22T10:18:16;2.47;;;2.47;;
9270;SDS011;4673;53.458;9.940;2023-11-22T10:20:43;2.90;;;2.90;;
9270;SDS011;4673;53.458;9.940;2023-11-22T10:23:14;2.67;;;2.67;;
9270;SDS011;4673;53.458;9.940;2023-11-22T10:28:12;3.87;;;3.87;;
9270;SDS011;4673;53.458;9.940;2023-11-22T10:30:38;2.80;;;2.80;;
9270;SDS011;4673;53.458;9.940;2023-11-22T10:33:05;2.20;;;2.20;;
9270;SDS011;4673;53.458;9.940;2023-11-22T10:35:31;2.37;;;2.37;;
9270;SDS011;4673;53.458;9.940;2023-11-22T10:37:59;2.73;;;2.73;;
9270;SDS011;4673;53.458;9.940;2023-11-22T10:40:28;2.80;;;2.80;;
9270;SDS011;4673;53.458;9.940;2023-11-22T10:42:54;2.13;;;2.13;;
9270;SDS011;4673;53.458;9.940;2023-11-22T10:45:21;2.10;;;2.10;;
9270;SDS011;4673;53.458;9.940;2023-11-22T10:47:48;2.17;;;2.17;;
9270;SDS011;4673;53.458;9.940;2023-11-22T10:50:16;2.10;;;2.10;;
9270;SDS011;4673;53.458;9.940;2023-11-22T10:52:42;1.77;;;1.77;;
9270;SDS011;4673;53.458;9.940;2023-11-22T10:55:11;2.27;;;2.27;;
9270;SDS011;4673;53.458;9.940;2023-11-22T10:57:43;2.37;;;2.37;;
9270;SDS011;4673;53.458;9.940;2023-11-22T11:00:12;2.00;;;2.00;;
9270;SDS011;4673;53.458;9.940;2023-11-22T11:02:45;2.17;;;2.17;;
9270;SDS011;4673;53.458;9.940;2023-11-22T11:05:24;2.67;;;2.67;;
9270;SDS011;4673;53.458;9.940;2023-11-22T11:08:02;2.13;;;2.13;;
9270;SDS011;4673;53.458;9.940;2023-11-22T11:10:39;1.67;;;1.67;;
9270;SDS011;4673;53.458;9.940;2023-11-22T11:13:06;1.70;;;1.70;;
9270;SDS011;4673;53.458;9.940;2023-11-22T11:15:34;2.20;;;2.20;;
9270;SDS011;4673;53.458;9.940;2023-11-22T11:18:01;2.40;;;2.40;;
9270;SDS011;4673;53.458;9.940;2023-11-22T11:20:32;2.10;;;2.10;;
9270;SDS011;4673;53.458;9.940;2023-11-22T11:23:12;1.93;;;1.93;;
9270;SDS011;4673;53.458;9.940;2023-11-22T11:25:39;2.00;;;2.00;;
9270;SDS011;4673;53.458;9.940;2023-11-22T11:28:09;2.20;;;2.20;;
9270;SDS011;4673;53.458;9.940;2023-11-22T11:33:18;2.67;;;2.67;;
9270;SDS011;4673;53.458;9.940;2023-11-22T11:35:57;2.70;;;2.70;;
9270;SDS011;4673;53.458;9.940;2023-11-22T11:38:31;2.17;;;2.17;;
9270;SDS011;4673;53.458;9.940;2023-11-22T11:41:08;2.50;;;2.50;;
9270;SDS011;4673;53.458;9.940;2023-11-22T11:43:45;2.13;;;2.13;;
9270;SDS011;4673;53.458;9.940;2023-11-22T11:46:13;1.63;;;1.63;;
9270;SDS011;4673;53.458;9.940;2023-11-22T11:48:43;1.70;;;1.70;;
9270;SDS011;4673;53.458;9.940;2023-11-22T11:51:09;1.40;;;1.40;;
9270;SDS011;4673;53.458;9.940;2023-11-22T11:53:38;1.60;;;1.60;;
9270;SDS011;4673;53.458;9.940;2023-11-22T11:56:04;1.37;;;1.37;;
9270;SDS011;4673;53.458;9.940;2023-11-22T11:58:30;1.23;;;1.23;;
9270;SDS011;4673;53.458;9.940;2023-11-22T12:00:56;1.60;;;1.60;;
9270;SDS011;4673;53.458;9.940;2023-11-22T12:03:23;1.30;;;1.30;;
9270;SDS011;4673;53.458;9.940;2023-11-22T12:05:49;1.43;;;1.43;;
9270;SDS011;4673;53.458;9.940;2023-11-22T12:08:15;1.20;;;1.20;;
9270;SDS011;4673;53.458;9.940;2023-11-22T12:10:42;1.20;;;1.20;;
9270;SDS011;4673;53.458;9.940;2023-11-22T12:13:20;1.20;;;1.20;;
9270;SDS011;4673;53.458;9.940;2023-11-22T12:15:55;1.00;;;1.00;;
9270;SDS011;4673;53.458;9.940;2023-11-22T12:18:22;1.40;;;1.40;;
9270;SDS011;4673;53.458;9.940;2023-11-22T12:20:57;1.40;;;1.40;;
9270;SDS011;4673;53.458;9.940;2023-11-22T12:23:24;1.37;;;1.37;;
9270;SDS011;4673;53.458;9.940;2023-11-22T12:25:54;1.30;;;1.30;;
9270;SDS011;4673;53.458;9.940;2023-11-22T12:28:27;1.30;;;1.30;;
9270;SDS011;4673;53.458;9.940;2023-11-22T12:30:54;1.53;;;1.53;;
9270;SDS011;4673;53.458;9.940;2023-11-22T12:33:20;1.13;;;1.13;;
9270;SDS011;4673;53.458;9.940;2023-11-22T12:35:46;1.47;;;1.47;;
9270;SDS011;4673;53.458;9.940;2023-11-22T12:38:13;1.00;;;1.00;;
9270;SDS011;4673;53.458;9.940;2023-11-22T12:40:45;1.10;;;1.10;;
9270;SDS011;4673;53.458;9.940;2023-11-22T12:43:12;1.17;;;1.17;;
9270;SDS011;4673;53.458;9.940;2023-11-22T12:45:41;1.43;;;1.43;;
9270;SDS011;4673;53.458;9.940;2023-11-22T12:48:20;0.90;;;0.90;;
9270;SDS011;4673;53.458;9.940;2023-11-22T12:50:50;0.97;;;0.97;;
9270;SDS011;4673;53.458;9.940;2023-11-22T12:53:19;1.73;;;1.73;;
9270;SDS011;4673;53.458;9.940;2023-11-22T12:55:49;1.77;;;1.77;;
9270;SDS011;4673;53.458;9.940;2023-11-22T12:58:16;1.60;;;1.60;;
9270;SDS011;4673;53.458;9.940;2023-11-22T13:00:46;1.33;;;1.33;;
9270;SDS011;4673;53.458;9.940;2023-11-22T13:03:13;1.57;;;1.57;;
9270;SDS011;4673;53.458;9.940;2023-11-22T13:05:39;1.53;;;1.53;;
9270;SDS011;4673;53.458;9.940;2023-11-22T13:08:08;1.00;;;1.00;;
9270;SDS011;4673;53.458;9.940;2023-11-22T13:10:43;0.80;;;0.80;;
9270;SDS011;4673;53.458;9.940;2023-11-22T13:13:11;0.90;;;0.90;;
9270;SDS011;4673;53.458;9.940;2023-11-22T13:15:37;1.37;;;1.37;;
9270;SDS011;4673;53.458;9.940;2023-11-22T13:18:05;1.03;;;1.03;;
9270;SDS011;4673;53.458;9.940;2023-11-22T13:20:34;1.10;;;1.10;;
9270;SDS011;4673;53.458;9.940;2023-11-22T13:23:00;1.40;;;1.40;;
9270;SDS011;4673;53.458;9.940;2023-11-22T13:25:26;1.40;;;1.40;;
9270;SDS011;4673;53.458;9.940;2023-11-22T13:27:51;1.23;;;1.23;;
9270;SDS011;4673;53.458;9.940;2023-11-22T13:30:18;1.13;;;1.13;;
9270;SDS011;4673;53.458;9.940;2023-11-22T13:32:56;1.33;;;1.33;;
9270;SDS011;4673;53.458;9.940;2023-11-22T13:35:23;1.00;;;1.00;;
9270;SDS011;4673;53.458;9.940;2023-11-22T13:37:49;0.97;;;0.97;;
9270;SDS011;4673;53.458;9.940;2023-11-22T13:40:16;1.03;;;1.03;;
9270;SDS011;4673;53.458;9.940;2023-11-22T13:42:46;1.00;;;1.00;;
9270;SDS011;4673;53.458;9.940;2023-11-22T13:45:17;1.10;;;1.10;;
9270;SDS011;4673;53.458;9.940;2023-11-22T13:50:10;0.83;;;0.83;;
9270;SDS011;4673;53.458;9.940;2023-11-22T13:52:40;1.10;;;1.10;;
9270;SDS011;4673;53.458;9.940;2023-11-22T13:55:06;1.10;;;1.10;;
9270;SDS011;4673;53.458;9.940;2023-11-22T13:57:36;0.90;;;0.90;;
9270;SDS011;4673;53.458;9.940;2023-11-22T14:00:03;0.83;;;0.83;;
9270;SDS011;4673;53.458;9.940;2023-11-22T14:02:34;1.30;;;1.30;;
9270;SDS011;4673;53.458;9.940;2023-11-22T14:05:00;1.00;;;1.00;;
9270;SDS011;4673;53.458;9.940;2023-11-22T14:07:26;1.03;;;1.03;;
9270;SDS011;4673;53.458;9.940;2023-11-22T14:09:52;1.40;;;1.40;;
9270;SDS011;4673;53.458;9.940;2023-11-22T14:12:18;1.33;;;1.33;;
9270;SDS011;4673;53.458;9.940;2023-11-22T14:14:44;1.10;;;1.10;;
9270;SDS011;4673;53.458;9.940;2023-11-22T14:17:10;1.43;;;1.43;;
9270;SDS011;4673;53.458;9.940;2023-11-22T14:19:36;1.30;;;1.30;;
9270;SDS011;4673;53.458;9.940;2023-11-22T14:22:01;1.47;;;1.47;;
9270;SDS011;4673;53.458;9.940;2023-11-22T14:24:28;1.50;;;1.50;;
9270;SDS011;4673;53.458;9.940;2023-11-22T14:26:55;1.40;;;1.40;;
9270;SDS011;4673;53.458;9.940;2023-11-22T14:29:25;1.93;;;1.93;;
9270;SDS011;4673;53.458;9.940;2023-11-22T14:31:50;1.40;;;1.40;;
9270;SDS011;4673;53.458;9.940;2023-11-22T14:34:16;1.33;;;1.33;;
9270;SDS011;4673;53.458;9.940;2023-11-22T14:36:42;1.30;;;1.30;;
9270;SDS011;4673;53.458;9.940;2023-11-22T14:39:08;1.50;;;1.50;;
9270;SDS011;4673;53.458;9.940;2023-11-22T14:41:37;1.60;;;1.60;;
9270;SDS011;4673;53.458;9.940;2023-11-22T14:44:02;1.40;;;1.40;;
9270;SDS011;4673;53.458;9.940;2023-11-22T14:46:29;1.33;;;1.33;;
9270;SDS011;4673;53.458;9.940;2023-11-22T14:48:55;1.70;;;1.70;;
9270;SDS011;4673;53.458;9.940;2023-11-22T14:51:21;1.73;;;1.73;;
9270;SDS011;4673;53.458;9.940;2023-11-22T14:53:47;2.10;;;2.10;;
9270;SDS011;4673;53.458;9.940;2023-11-22T14:56:12;1.80;;;1.80;;
9270;SDS011;4673;53.458;9.940;2023-11-22T14:58:39;1.60;;;1.60;;
9270;SDS011;4673;53.458;9.940;2023-11-22T15:01:05;1.53;;;1.53;;
9270;SDS011;4673;53.458;9.940;2023-11-22T15:03:33;1.57;;;1.57;;
9270;SDS011;4673;53.458;9.940;2023-11-22T15:06:00;1.90;;;1.90;;
9270;SDS011;4673;53.458;9.940;2023-11-22T15:08:27;2.03;;;2.03;;
9270;SDS011;4673;53.458;9.940;2023-11-22T15:10:56;1.83;;;1.83;;
9270;SDS011;4673;53.458;9.940;2023-11-22T15:13:21;1.87;;;1.87;;
9270;SDS011;4673;53.458;9.940;2023-11-22T15:15:47;2.07;;;2.07;;
9270;SDS011;4673;53.458;9.940;2023-11-22T15:18:13;1.57;;;1.57;;
9270;SDS011;4673;53.458;9.940;2023-11-22T15:20:39;1.97;;;1.97;;
9270;SDS011;4673;53.458;9.940;2023-11-22T15:23:04;2.60;;;2.60;;
9270;SDS011;4673;53.458;9.940;2023-11-22T15:25:31;2.03;;;2.03;;